createdAt,value
2022-09-03T00:02:21.892Z,19.88
2022-09-03T00:07:53.614Z,19.99
2022-09-03T00:13:25.279Z,19.74
2022-09-03T00:18:57.011Z,19.84
2022-09-03T00:24:28.802Z,20.0
2022-09-03T00:30:00.487Z,20.15
2022-09-03T00:35:32.273Z,20.37
2022-09-03T00:41:03.904Z,20.55
2022-09-03T00:46:42.102Z,20.52
2022-09-03T00:52:13.750Z,20.5
2022-09-03T00:57:47.591Z,20.34
2022-09-03T01:03:17.219Z,20.36
2022-09-03T01:08:49.160Z,20.29
2022-09-03T01:14:20.620Z,20.26
2022-09-03T01:19:52.467Z,20.33
2022-09-03T01:25:24.107Z,20.29
2022-09-03T01:30:55.836Z,20.12
2022-09-03T01:36:27.484Z,20.15
2022-09-03T01:41:59.293Z,20.01
2022-09-03T01:47:35.386Z,20.05
2022-09-03T01:53:07.053Z,20.12
2022-09-03T01:58:38.810Z,20.1
2022-09-03T02:04:10.505Z,20.06
2022-09-03T02:09:42.297Z,20.09
2022-09-03T02:15:14.012Z,19.95
2022-09-03T02:20:45.726Z,19.9
2022-09-03T02:26:17.439Z,19.88
2022-09-03T02:31:49.178Z,20.05
2022-09-03T02:37:20.870Z,20.14
2022-09-03T02:42:52.539Z,20.09
2022-09-03T02:48:28.647Z,19.97
2022-09-03T02:54:00.413Z,19.84
2022-09-03T02:59:32.348Z,19.84
2022-09-03T03:05:03.839Z,19.79
2022-09-03T03:10:35.589Z,19.67
2022-09-03T03:16:07.439Z,19.55
2022-09-03T03:21:39.026Z,19.6
2022-09-03T03:27:10.722Z,19.65
2022-09-03T03:32:42.424Z,19.64
2022-09-03T03:38:14.253Z,19.65
2022-09-03T03:43:45.896Z,19.71
2022-09-03T03:49:22.029Z,19.75
2022-09-03T03:54:53.762Z,19.73
2022-09-03T04:00:25.447Z,19.83
2022-09-03T04:05:57.188Z,19.71
2022-09-03T04:11:28.920Z,19.77
2022-09-03T04:17:00.662Z,19.68
2022-09-03T04:22:32.345Z,19.8
2022-09-03T04:28:04.121Z,19.85
2022-09-03T04:33:35.809Z,19.88
2022-09-03T04:39:07.523Z,19.8
2022-09-03T04:44:39.231Z,19.79
2022-09-03T04:50:15.355Z,19.71
2022-09-03T04:55:47.059Z,19.71
2022-09-03T05:01:18.801Z,19.67
2022-09-03T05:06:50.447Z,19.95
2022-09-03T05:12:22.246Z,19.64
2022-09-03T05:17:54.042Z,19.89
2022-09-03T05:23:25.657Z,19.53
2022-09-03T05:28:57.373Z,19.78
2022-09-03T05:34:29.056Z,19.72
2022-09-03T05:40:00.967Z,19.73
2022-09-03T05:45:32.597Z,19.49
2022-09-03T05:51:08.651Z,19.82
2022-09-03T05:56:40.433Z,19.83
2022-09-03T06:02:12.175Z,19.74
2022-09-03T06:07:43.818Z,19.73
2022-09-03T06:13:15.618Z,19.95
2022-09-03T06:18:47.280Z,20.01
2022-09-03T06:24:19.011Z,20.04
2022-09-03T06:29:50.715Z,20.06
2022-09-03T06:35:22.433Z,20.14
2022-09-03T06:40:54.158Z,20.19
2022-09-03T06:46:25.857Z,20.34
2022-09-03T06:52:01.974Z,20.39
2022-09-03T06:57:33.696Z,20.44
2022-09-03T07:03:05.600Z,20.62
2022-09-03T07:08:37.147Z,20.75
2022-09-03T07:14:08.874Z,20.9
2022-09-03T07:19:40.599Z,20.78
2022-09-03T07:25:12.390Z,20.6
2022-09-03T07:30:44.055Z,21.06
2022-09-03T07:36:15.906Z,21.14
2022-09-03T07:41:47.511Z,21.11
2022-09-03T07:47:23.198Z,21.31
2022-09-03T07:52:55.286Z,21.53
2022-09-03T07:58:27.046Z,20.96
2022-09-03T08:03:58.820Z,21.59
2022-09-03T08:09:30.447Z,21.26
2022-09-03T08:15:02.205Z,21.46
2022-09-03T08:20:33.893Z,21.31
2022-09-03T08:26:05.632Z,21.82
2022-09-03T08:31:37.378Z,21.89
2022-09-03T08:37:09.076Z,21.42
2022-09-03T08:42:40.841Z,21.53
2022-09-03T08:48:12.520Z,21.14
2022-09-03T08:53:48.656Z,21.57
2022-09-03T08:59:20.365Z,21.57
2022-09-03T09:04:52.086Z,21.72
2022-09-03T09:10:23.762Z,21.76
2022-09-03T09:15:55.524Z,21.85
2022-09-03T09:21:27.775Z,22.01
2022-09-03T09:26:58.920Z,21.74
2022-09-03T09:32:30.638Z,22.14
2022-09-03T09:38:02.412Z,22.21
2022-09-03T09:43:34.180Z,21.73
2022-09-03T09:49:05.839Z,22.54
2022-09-03T09:54:43.915Z,22.56
2022-09-03T10:00:15.665Z,22.58
2022-09-03T10:05:47.384Z,22.82
2022-09-03T10:11:19.091Z,22.33
2022-09-03T10:16:50.866Z,22.93
2022-09-03T10:22:22.580Z,23.24
2022-09-03T10:27:54.386Z,23.3
2022-09-03T10:33:26.128Z,23.52
2022-09-03T10:38:57.757Z,23.93
2022-09-03T10:44:29.433Z,23.81
2022-09-03T10:50:01.161Z,24.1
2022-09-03T10:55:37.250Z,24.03
2022-09-03T11:01:09.011Z,24.27
2022-09-03T11:06:40.710Z,24.45
2022-09-03T11:12:12.390Z,24.74
2022-09-03T11:17:44.610Z,25.0
2022-09-03T11:23:15.875Z,24.54
2022-09-03T11:28:47.578Z,24.93
2022-09-03T11:34:23.467Z,24.97
2022-09-03T11:39:51.123Z,24.72
2022-09-03T11:45:22.754Z,24.54
2022-09-03T11:50:54.496Z,25.0
2022-09-03T11:56:30.555Z,24.91
2022-09-03T12:02:02.422Z,24.81
2022-09-03T12:07:34.166Z,24.55
2022-09-03T12:13:05.837Z,24.38
2022-09-03T12:18:37.563Z,24.66
2022-09-03T12:24:09.313Z,23.81
2022-09-03T12:29:41.029Z,24.07
2022-09-03T12:35:13.233Z,23.91
2022-09-03T12:46:17.263Z,23.02
2022-09-03T12:51:50.514Z,21.77
2022-09-03T12:57:24.053Z,21.42
2022-09-03T13:02:55.730Z,21.63
2022-09-03T13:08:27.647Z,21.67
2022-09-03T13:13:59.189Z,21.35
2022-09-03T13:19:30.918Z,21.91
2022-09-03T13:25:02.685Z,21.46
2022-09-03T13:30:34.391Z,21.53
2022-09-03T13:36:06.039Z,21.72
2022-09-03T13:41:37.822Z,22.21
2022-09-03T13:47:09.534Z,22.32
2022-09-03T13:52:41.309Z,22.13
2022-09-03T13:58:17.398Z,22.26
2022-09-03T14:03:49.399Z,22.47
2022-09-03T14:09:20.881Z,22.59
2022-09-03T14:14:52.553Z,22.13
2022-09-03T14:20:24.277Z,22.21
2022-09-03T14:25:56.004Z,22.34
2022-09-03T14:31:28.050Z,21.79
2022-09-03T14:36:59.445Z,21.93
2022-09-03T14:42:31.167Z,22.14
2022-09-03T14:48:02.843Z,21.83
2022-09-03T14:53:34.654Z,22.24
2022-09-03T14:59:10.738Z,22.56
2022-09-03T15:04:42.423Z,22.68
2022-09-03T15:10:14.177Z,22.86
2022-09-03T15:15:45.903Z,22.71
2022-09-03T15:21:17.601Z,23.18
2022-09-03T15:26:49.365Z,23.21
2022-09-03T15:32:21.106Z,23.08
2022-09-03T15:37:52.785Z,23.28
2022-09-03T15:43:24.509Z,23.27
2022-09-03T15:48:56.241Z,23.41
2022-09-03T15:54:27.946Z,23.66
2022-09-03T16:00:04.054Z,23.33
2022-09-03T16:05:35.967Z,23.31
2022-09-03T16:11:07.550Z,23.41
2022-09-03T16:16:39.280Z,23.42
2022-09-03T16:22:10.959Z,23.36
2022-09-03T16:27:42.779Z,23.36
2022-09-03T16:33:14.355Z,23.38
2022-09-03T16:38:46.080Z,23.38
2022-09-03T16:44:17.847Z,23.38
2022-09-03T16:49:49.587Z,23.49
2022-09-03T16:55:21.246Z,23.47
2022-09-03T17:00:57.459Z,22.55
2022-09-03T17:06:29.143Z,23.27
2022-09-03T17:12:00.818Z,23.36
2022-09-03T17:17:32.534Z,23.32
2022-09-03T17:23:04.261Z,23.24
2022-09-03T17:28:35.958Z,23.25
2022-09-03T17:34:07.770Z,23.25
2022-09-03T17:39:39.545Z,23.16
2022-09-03T17:45:11.175Z,23.04
2022-09-03T17:50:42.908Z,22.96
2022-09-03T17:56:14.646Z,22.82
2022-09-03T18:01:50.792Z,22.67
2022-09-03T18:07:22.501Z,22.63
2022-09-03T18:12:57.975Z,22.47
2022-09-03T18:18:25.838Z,22.34
2022-09-03T18:23:57.635Z,22.22
2022-09-03T18:24:45.314Z,22.21
2022-09-03T18:30:17.035Z,22.21
2022-09-03T18:35:48.679Z,22.13
2022-09-03T18:41:20.434Z,22.04
2022-09-03T18:52:23.922Z,21.96
2022-09-03T18:57:55.649Z,21.94
2022-09-03T19:03:27.325Z,21.98
2022-09-03T19:08:59.058Z,21.89
2022-09-03T19:14:30.777Z,21.87
2022-09-03T19:20:02.693Z,21.88
2022-09-03T19:25:38.640Z,21.8
2022-09-03T19:31:10.338Z,21.76
2022-09-03T19:36:42.084Z,21.73
2022-09-03T19:42:14.174Z,21.72
2022-09-03T19:47:45.501Z,21.6
2022-09-03T19:53:17.242Z,21.52
2022-09-03T19:58:48.949Z,21.42
2022-09-03T20:04:20.662Z,21.27
2022-09-03T20:09:52.453Z,21.22
2022-09-03T20:15:24.219Z,21.13
2022-09-03T20:20:55.917Z,21.09
2022-09-03T20:26:32.078Z,20.96
2022-09-03T20:32:03.773Z,20.86
2022-09-03T20:37:35.507Z,20.79
2022-09-03T20:43:07.221Z,20.72
2022-09-03T20:48:38.909Z,20.7
2022-09-03T20:54:10.601Z,20.73
2022-09-03T20:59:42.341Z,20.82
2022-09-03T21:05:14.094Z,20.69
2022-09-03T21:10:45.772Z,20.73
2022-09-03T21:16:17.577Z,20.62
2022-09-03T21:21:49.285Z,20.34
2022-09-03T21:27:25.400Z,20.48
2022-09-03T21:32:57.093Z,20.59
2022-09-03T21:38:28.821Z,20.67
2022-09-03T21:44:00.510Z,20.74
2022-09-03T21:49:32.282Z,20.69
2022-09-03T21:55:04.003Z,20.85
2022-09-03T22:00:35.702Z,20.83
2022-09-03T22:06:07.416Z,20.75
2022-09-03T22:11:39.155Z,20.37
2022-09-03T22:17:10.853Z,20.6
2022-09-03T22:22:42.595Z,20.77
2022-09-03T22:28:18.666Z,20.78
2022-09-03T22:33:50.454Z,20.46
2022-09-03T22:39:22.200Z,20.68
2022-09-03T22:44:53.879Z,20.79
2022-09-03T22:50:25.647Z,20.77
2022-09-03T22:55:57.311Z,20.78
2022-09-03T23:01:29.079Z,20.81
2022-09-03T23:07:00.795Z,20.84
2022-09-03T23:12:32.506Z,20.79
2022-09-03T23:18:04.586Z,20.73
2022-09-03T23:23:35.913Z,20.65
2022-09-03T23:29:12.096Z,20.58
2022-09-03T23:34:43.797Z,20.43
2022-09-03T23:40:15.580Z,20.36
2022-09-03T23:45:47.279Z,20.3
2022-09-03T23:51:18.905Z,20.15
2022-09-03T23:56:50.605Z,20.12
